createdAt,value
2018-08-06T00:00:36.099Z,96138.38
2018-08-06T00:03:07.162Z,96139.65
2018-08-06T00:05:37.701Z,96141.81
2018-08-06T00:08:08.838Z,96141.20
2018-08-06T00:10:39.584Z,96138.42
2018-08-06T00:13:10.041Z,96133.47
2018-08-06T00:15:40.550Z,96127.62
2018-08-06T00:18:11.173Z,96129.62
2018-08-06T00:20:41.737Z,96131.38
2018-08-06T00:23:12.328Z,96137.36
2018-08-06T00:25:42.839Z,96131.30
2018-08-06T00:28:13.354Z,96130.40
2018-08-06T00:30:43.854Z,96130.28
2018-08-06T00:36:50.973Z,96125.89
2018-08-06T00:39:21.834Z,96129.53
2018-08-06T00:41:52.335Z,96123.09
2018-08-06T00:44:22.832Z,96121.67
2018-08-06T00:46:53.369Z,96117.75
2018-08-06T00:49:23.946Z,96113.13
2018-08-06T00:51:54.378Z,96113.84
2018-08-06T00:54:24.916Z,96106.64
2018-08-06T00:56:55.444Z,96110.81
2018-08-06T00:59:26.316Z,96109.52
2018-08-06T01:01:57.686Z,96107.70
2018-08-06T01:04:28.186Z,96106.31
2018-08-06T01:06:59.164Z,96099.84
2018-08-06T01:09:29.708Z,96101.75
2018-08-06T01:12:00.320Z,96099.77
2018-08-06T01:14:31.114Z,96102.09
2018-08-06T01:17:01.775Z,96094.93
2018-08-06T01:19:32.406Z,96100.04
2018-08-06T01:22:02.986Z,96093.67
2018-08-06T01:24:33.598Z,96096.13
2018-08-06T01:27:04.068Z,96094.48
2018-08-06T01:29:34.537Z,96090.02
2018-08-06T01:32:05.161Z,96086.32
2018-08-06T01:34:35.658Z,96077.72
2018-08-06T01:37:06.407Z,96079.62
2018-08-06T01:39:36.971Z,96078.38
2018-08-06T01:42:07.634Z,96082.53
2018-08-06T01:44:38.149Z,96084.16
2018-08-06T01:47:09.138Z,96086.45
2018-08-06T01:49:40.400Z,96083.03
2018-08-06T01:52:10.980Z,96091.83
2018-08-06T01:54:41.502Z,96086.32
2018-08-06T01:57:12.082Z,96088.22
2018-08-06T01:59:42.947Z,96084.58
2018-08-06T02:02:14.089Z,96084.69
2018-08-06T02:04:46.348Z,96089.95
2018-08-06T02:07:16.878Z,96086.22
2018-08-06T02:09:48.080Z,96092.52
2018-08-06T02:12:19.094Z,96086.35
2018-08-06T02:14:49.678Z,96089.05
2018-08-06T02:17:24.241Z,96085.41
2018-08-06T02:19:55.143Z,96083.41
2018-08-06T02:22:25.869Z,96085.77
2018-08-06T02:24:56.862Z,96081.43
2018-08-06T02:27:27.856Z,96080.02
2018-08-06T02:29:58.465Z,96076.89
2018-08-06T02:32:28.873Z,96073.76
2018-08-06T02:34:59.399Z,96078.22
2018-08-06T02:37:29.973Z,96077.97
2018-08-06T02:40:01.061Z,96081.05
2018-08-06T02:42:31.677Z,96077.64
2018-08-06T02:45:02.184Z,96073.34
2018-08-06T02:47:32.712Z,96068.86
2018-08-06T02:50:03.211Z,96072.53
2018-08-06T02:52:33.989Z,96067.98
2018-08-06T02:55:04.910Z,96063.45
2018-08-06T02:57:36.482Z,96066.39
2018-08-06T03:00:11.190Z,96067.67
2018-08-06T03:02:43.386Z,96069.36
2018-08-06T03:05:16.892Z,96068.16
2018-08-06T03:07:48.271Z,96067.23
2018-08-06T03:10:18.820Z,96068.92
2018-08-06T03:12:49.184Z,96065.84
2018-08-06T03:19:36.844Z,96064.45
2018-08-06T03:22:08.412Z,96063.86
2018-08-06T03:24:40.152Z,96067.84
2018-08-06T03:27:11.259Z,96058.93
2018-08-06T03:29:42.247Z,96061.54
2018-08-06T03:32:12.879Z,96066.00
2018-08-06T03:34:43.579Z,96062.16
2018-08-06T03:37:14.901Z,96060.30
2018-08-06T03:39:45.883Z,96066.47
2018-08-06T03:42:16.455Z,96071.70
2018-08-06T03:44:47.097Z,96074.80
2018-08-06T03:47:17.652Z,96072.96
2018-08-06T03:49:48.337Z,96073.41
2018-08-06T03:52:19.153Z,96074.75
2018-08-06T03:54:49.938Z,96072.59
2018-08-06T03:57:20.487Z,96077.81
2018-08-06T03:59:51.159Z,96077.67
2018-08-06T04:02:21.685Z,96072.73
2018-08-06T04:04:53.036Z,96070.13
2018-08-06T04:07:23.663Z,96080.14
2018-08-06T04:09:54.943Z,96087.08
2018-08-06T04:12:25.434Z,96089.24
2018-08-06T04:14:55.895Z,96090.02
2018-08-06T04:17:27.137Z,96089.61
2018-08-06T04:19:57.715Z,96094.06
2018-08-06T04:22:28.179Z,96092.98
2018-08-06T04:24:59.217Z,96097.59
2018-08-06T04:27:29.755Z,96101.63
2018-08-06T04:30:00.190Z,96103.32
2018-08-06T04:32:30.819Z,96104.69
2018-08-06T04:35:01.602Z,96104.98
2018-08-06T04:37:32.250Z,96103.46
2018-08-06T04:40:02.712Z,96106.83
2018-08-06T04:42:33.741Z,96099.75
2018-08-06T04:45:04.211Z,96102.67
2018-08-06T04:47:34.586Z,96103.46
2018-08-06T04:50:06.551Z,96110.39
2018-08-06T04:52:37.331Z,96103.59
2018-08-06T04:55:11.355Z,96110.05
2018-08-06T04:57:42.182Z,96111.39
2018-08-06T05:00:14.936Z,96115.14
2018-08-06T05:02:46.128Z,96123.20
2018-08-06T05:05:16.619Z,96115.81
2018-08-06T05:07:47.182Z,96114.03
2018-08-06T05:10:17.848Z,96113.44
2018-08-06T05:12:48.283Z,96124.38
2018-08-06T05:15:19.695Z,96123.91
2018-08-06T05:17:50.219Z,96122.45
2018-08-06T05:20:21.144Z,96124.73
2018-08-06T05:22:51.661Z,96125.44
2018-08-06T05:25:22.521Z,96122.08
2018-08-06T05:27:52.987Z,96126.54
2018-08-06T05:30:24.062Z,96125.81
2018-08-06T05:32:54.488Z,96128.80
2018-08-06T05:35:24.959Z,96131.23
2018-08-06T05:37:55.450Z,96129.32
2018-08-06T05:40:25.652Z,96128.15
2018-08-06T05:42:56.099Z,96130.14
2018-08-06T05:45:26.552Z,96134.88
2018-08-06T05:47:57.229Z,96131.86
2018-08-06T05:50:28.008Z,96131.45
2018-08-06T05:52:58.772Z,96132.67
2018-08-06T05:55:29.145Z,96131.19
2018-08-06T05:58:00.241Z,96131.91
2018-08-06T06:00:31.082Z,96134.00
2018-08-06T06:03:01.440Z,96137.80
2018-08-06T06:05:31.903Z,96134.03
2018-08-06T06:08:02.334Z,96128.56
2018-08-06T06:10:33.048Z,96137.69
2018-08-06T06:13:03.471Z,96133.88
2018-08-06T06:15:34.478Z,96131.41
2018-08-06T06:18:04.980Z,96133.74
2018-08-06T06:20:35.430Z,96142.84
2018-08-06T06:23:06.134Z,96143.09
2018-08-06T06:25:37.245Z,96149.68
2018-08-06T06:28:08.104Z,96148.47
2018-08-06T06:30:38.528Z,96147.59
2018-08-06T06:33:09.034Z,96152.63
2018-08-06T06:35:39.822Z,96154.41
2018-08-06T06:38:10.174Z,96159.74
2018-08-06T06:40:41.772Z,96159.38
2018-08-06T06:43:12.325Z,96152.72
2018-08-06T06:45:42.792Z,96152.53
2018-08-06T06:48:14.644Z,96152.08
2018-08-06T06:50:45.153Z,96140.94
2018-08-06T06:53:15.694Z,96142.45
2018-08-06T06:55:46.290Z,96141.03
2018-08-06T06:58:17.096Z,96142.55
2018-08-06T07:00:47.648Z,96142.11
2018-08-06T07:03:18.116Z,96142.11
2018-08-06T07:05:48.600Z,96139.43
2018-08-06T07:08:19.022Z,96144.33
2018-08-06T07:10:49.458Z,96140.30
2018-08-06T07:13:19.956Z,96144.03
2018-08-06T07:15:50.460Z,96138.52
2018-08-06T07:18:20.999Z,96139.14
2018-08-06T07:20:51.434Z,96136.80
2018-08-06T07:23:22.263Z,96138.36
2018-08-06T07:29:29.153Z,96137.81
2018-08-06T07:31:59.642Z,96139.60
2018-08-06T07:34:30.078Z,96134.88
2018-08-06T07:37:01.364Z,96138.59
2018-08-06T07:39:31.918Z,96135.36
2018-08-06T07:42:02.554Z,96139.34
2018-08-06T07:44:33.131Z,96135.88
2018-08-06T07:47:03.783Z,96136.66
2018-08-06T07:49:34.559Z,96132.20
2018-08-06T07:52:04.802Z,96130.83
2018-08-06T07:54:35.871Z,96137.50
2018-08-06T07:57:07.562Z,96130.34
2018-08-06T07:59:38.282Z,96128.77
2018-08-06T08:02:09.531Z,96125.95
2018-08-06T08:04:40.530Z,96135.36
2018-08-06T08:07:11.046Z,96128.11
2018-08-06T08:09:41.834Z,96124.53
2018-08-06T08:12:12.458Z,96122.08
2018-08-06T08:14:43.392Z,96123.31
2018-08-06T08:17:14.078Z,96121.52
2018-08-06T08:19:44.902Z,96120.99
2018-08-06T08:22:15.896Z,96121.16
2018-08-06T08:24:46.694Z,96115.54
2018-08-06T08:27:17.129Z,96111.71
2018-08-06T08:29:47.685Z,96115.24
2018-08-06T08:32:17.788Z,96111.86
2018-08-06T08:34:48.691Z,96107.04
2018-08-06T08:37:19.134Z,96106.08
2018-08-06T08:39:49.575Z,96117.70
2018-08-06T08:42:20.483Z,96109.89
2018-08-06T08:44:51.012Z,96111.99
2018-08-06T08:47:21.456Z,96112.88
2018-08-06T08:49:52.213Z,96112.58
2018-08-06T08:52:22.725Z,96108.48
2018-08-06T08:54:53.365Z,96112.17
2018-08-06T08:57:23.869Z,96117.34
2018-08-06T08:59:54.303Z,96107.64
2018-08-06T09:02:24.731Z,96113.67
2018-08-06T09:04:55.111Z,96104.69
2018-08-06T09:07:25.712Z,96101.73
2018-08-06T09:09:56.614Z,96115.55
2018-08-06T09:12:27.033Z,96103.40
2018-08-06T09:14:57.873Z,96101.36
2018-08-06T09:17:28.289Z,96103.78
2018-08-06T09:19:58.751Z,96103.92
2018-08-06T09:22:29.232Z,96106.18
2018-08-06T09:24:59.655Z,96101.55
2018-08-06T09:27:30.612Z,96102.38
2018-08-06T09:30:01.903Z,96094.12
2018-08-06T09:32:32.360Z,96101.02
2018-08-06T09:35:02.793Z,96092.56
2018-08-06T09:37:32.955Z,96088.74
2018-08-06T09:40:03.137Z,96086.42
2018-08-06T09:42:33.999Z,96086.78
2018-08-06T09:45:04.189Z,96087.24
2018-08-06T09:47:33.923Z,96078.63
2018-08-06T09:50:04.885Z,96079.36
2018-08-06T09:52:35.136Z,96074.83
2018-08-06T09:55:07.139Z,96067.36
2018-08-06T09:57:37.299Z,96066.37
2018-08-06T10:00:20.462Z,96078.06
2018-08-06T10:02:51.858Z,96079.58
2018-08-06T10:05:23.480Z,96070.84
2018-08-06T10:07:54.641Z,96064.71
2018-08-06T10:10:25.582Z,96061.48
2018-08-06T10:12:55.945Z,96067.04
2018-08-06T10:15:26.269Z,96050.81
2018-08-06T10:17:56.708Z,96061.34
2018-08-06T10:20:27.246Z,96046.50
2018-08-06T10:22:57.657Z,96044.42
2018-08-06T10:25:28.053Z,96057.47
2018-08-06T10:27:58.196Z,96048.38
2018-08-06T10:30:28.445Z,96041.41
2018-08-06T10:32:58.993Z,96043.53
2018-08-06T10:35:29.181Z,96043.84
2018-08-06T10:37:59.359Z,96031.35
2018-08-06T10:40:29.477Z,96031.09
2018-08-06T10:42:59.843Z,96028.61
2018-08-06T10:45:30.695Z,96030.59
2018-08-06T10:48:00.921Z,96022.22
2018-08-06T10:50:31.066Z,96015.14
2018-08-06T10:53:01.189Z,96024.25
2018-08-06T10:55:31.334Z,96020.19
2018-08-06T10:58:41.584Z,96009.91
2018-08-06T11:01:12.536Z,96013.13
2018-08-06T11:03:42.841Z,96015.94
2018-08-06T11:06:13.287Z,96008.29
2018-08-06T11:08:43.608Z,96001.91
2018-08-06T11:11:14.085Z,96009.95
2018-08-06T11:13:44.636Z,96008.30
2018-08-06T11:16:14.735Z,95998.48
2018-08-06T11:18:44.868Z,96004.99
2018-08-06T11:21:15.020Z,95987.66
2018-08-06T11:23:45.245Z,95994.69
2018-08-06T11:26:15.442Z,95986.30
2018-08-06T11:28:45.571Z,95991.53
2018-08-06T11:31:15.843Z,95979.59
2018-08-06T11:33:46.238Z,95981.22
2018-08-06T11:36:16.364Z,95977.80
2018-08-06T11:38:46.537Z,95980.62
2018-08-06T11:41:16.796Z,95977.98
2018-08-06T11:44:38.320Z,95966.02
2018-08-06T11:47:08.988Z,95962.28
2018-08-06T11:49:39.390Z,95960.68
2018-08-06T11:52:10.213Z,95961.44
2018-08-06T11:54:40.754Z,95954.05
2018-08-06T11:57:11.026Z,95959.88
2018-08-06T11:59:41.190Z,95956.55
2018-08-06T12:02:11.450Z,95943.48
2018-08-06T12:04:41.648Z,95955.48
2018-08-06T12:07:11.848Z,95945.86
2018-08-06T12:09:42.636Z,95942.27
2018-08-06T12:12:13.509Z,95942.62
2018-08-06T12:14:44.337Z,95942.12
2018-08-06T12:17:15.129Z,95942.52
2018-08-06T12:19:45.571Z,95933.86
2018-08-06T12:22:15.685Z,95937.78
2018-08-06T12:24:45.871Z,95928.39
2018-08-06T12:27:16.037Z,95925.48
2018-08-06T12:29:46.508Z,95920.03
2018-08-06T12:32:16.714Z,95906.52
2018-08-06T12:34:46.935Z,95917.42
2018-08-06T12:37:17.107Z,95915.97
2018-08-06T12:39:47.623Z,95913.34
2018-08-06T12:42:18.127Z,95905.02
2018-08-06T12:44:48.260Z,95908.19
2018-08-06T12:47:19.366Z,95899.38
2018-08-06T12:49:50.291Z,95904.25
2018-08-06T12:52:20.502Z,95906.89
2018-08-06T12:54:50.627Z,95897.50
2018-08-06T12:57:21.148Z,95887.86
2018-08-06T12:59:51.317Z,95888.64
2018-08-06T13:02:21.885Z,95893.69
2018-08-06T13:04:52.277Z,95890.03
2018-08-06T13:07:22.552Z,95877.11
2018-08-06T13:09:52.708Z,95896.09
2018-08-06T13:12:22.840Z,95884.08
2018-08-06T13:14:52.994Z,95888.25
2018-08-06T13:17:23.283Z,95881.91
2018-08-06T13:19:53.563Z,95872.45
2018-08-06T13:22:23.709Z,95867.34
2018-08-06T13:24:53.845Z,95872.91
2018-08-06T13:27:24.123Z,95880.27
2018-08-06T13:29:54.263Z,95873.41
2018-08-06T13:32:24.460Z,95864.84
2018-08-06T13:34:55.050Z,95859.50
2018-08-06T13:37:25.805Z,95855.11
2018-08-06T13:39:56.185Z,95852.43
2018-08-06T13:42:26.641Z,95850.56
2018-08-06T13:44:56.986Z,95840.94
2018-08-06T13:47:27.518Z,95842.24
2018-08-06T13:49:58.105Z,95846.14
2018-08-06T13:52:28.598Z,95848.78
2018-08-06T13:54:59.158Z,95843.69
2018-08-06T13:57:29.544Z,95840.53
2018-08-06T13:59:59.802Z,95837.47
2018-08-06T14:02:30.252Z,95834.56
2018-08-06T14:05:00.526Z,95830.73
2018-08-06T14:07:30.656Z,95834.58
2018-08-06T14:10:00.702Z,95831.33
2018-08-06T14:12:31.538Z,95842.97
2018-08-06T14:15:02.041Z,95839.13
2018-08-06T14:17:32.211Z,95840.28
2018-08-06T14:20:02.882Z,95847.64
2018-08-06T14:22:33.342Z,95838.63
2018-08-06T14:25:04.683Z,95842.31
2018-08-06T14:27:35.253Z,95836.64
2018-08-06T14:30:09.250Z,95839.41
2018-08-06T14:32:39.621Z,95841.72
2018-08-06T14:35:10.319Z,95835.39
2018-08-06T14:37:40.698Z,95831.15
2018-08-06T14:40:15.703Z,95827.88
2018-08-06T14:42:46.888Z,95825.34
2018-08-06T14:45:17.297Z,95822.92
2018-08-06T14:47:47.809Z,95824.55
2018-08-06T14:50:18.001Z,95811.64
2018-08-06T14:52:48.574Z,95808.45
2018-08-06T14:55:18.965Z,95812.70
2018-08-06T14:57:49.075Z,95799.86
2018-08-06T15:00:20.879Z,95803.39
2018-08-06T15:02:52.403Z,95797.78
2018-08-06T15:05:23.112Z,95795.88
2018-08-06T15:07:53.388Z,95799.14
2018-08-06T15:10:23.584Z,95804.72
2018-08-06T15:12:53.753Z,95804.89
2018-08-06T15:15:23.973Z,95800.25
2018-08-06T15:17:54.491Z,95804.11
2018-08-06T15:20:24.655Z,95798.41
2018-08-06T15:22:55.089Z,95797.04
2018-08-06T15:25:25.918Z,95802.35
2018-08-06T15:27:56.299Z,95800.09
2018-08-06T15:30:26.881Z,95802.10
2018-08-06T15:32:57.298Z,95796.03
2018-08-06T15:35:27.788Z,95796.98
2018-08-06T15:37:57.919Z,95789.55
2018-08-06T15:40:28.105Z,95790.38
2018-08-06T15:42:58.282Z,95789.08
2018-08-06T15:45:28.439Z,95788.17
2018-08-06T15:47:59.015Z,95783.96
2018-08-06T15:50:29.175Z,95784.09
2018-08-06T15:52:59.452Z,95787.44
2018-08-06T15:55:29.929Z,95787.23
2018-08-06T15:58:00.289Z,95786.21
2018-08-06T16:00:30.569Z,95792.06
2018-08-06T16:03:01.123Z,95794.69
2018-08-06T16:05:31.452Z,95788.95
2018-08-06T16:08:02.015Z,95787.18
2018-08-06T16:10:32.220Z,95783.83
2018-08-06T16:13:02.339Z,95782.48
2018-08-06T16:15:32.455Z,95774.05
2018-08-06T16:18:02.611Z,95765.22
2018-08-06T16:20:32.891Z,95767.97
2018-08-06T16:23:03.108Z,95759.73
2018-08-06T16:28:03.611Z,95770.83
2018-08-06T16:30:33.850Z,95786.39
2018-08-06T16:33:04.481Z,95805.62
2018-08-06T16:35:34.933Z,95815.19
2018-08-06T16:38:05.379Z,95819.92
2018-08-06T16:40:36.943Z,95805.72
2018-08-06T16:43:07.426Z,95808.98
2018-08-06T16:45:37.607Z,95820.28
2018-08-06T16:48:07.929Z,95829.50
2018-08-06T16:50:38.119Z,95829.75
2018-08-06T16:53:08.307Z,95839.90
2018-08-06T16:55:38.978Z,95835.36
2018-08-06T16:58:09.543Z,95833.81
2018-08-06T17:00:39.710Z,95837.89
2018-08-06T17:03:10.233Z,95830.58
2018-08-06T17:05:40.417Z,95829.78
2018-08-06T17:08:10.876Z,95822.27
2018-08-06T17:10:41.435Z,95832.92
2018-08-06T17:13:11.839Z,95836.30
2018-08-06T17:15:42.264Z,95848.27
2018-08-06T17:18:13.062Z,95861.13
2018-08-06T17:20:43.785Z,95870.31
2018-08-06T17:23:14.557Z,95882.27
2018-08-06T17:25:44.975Z,95890.06
2018-08-06T17:28:15.439Z,95889.58
2018-08-06T17:30:46.075Z,95877.33
2018-08-06T17:33:17.635Z,95882.80
2018-08-06T17:35:48.111Z,95872.23
2018-08-06T17:38:18.669Z,95876.74
2018-08-06T17:40:49.155Z,95869.67
2018-08-06T17:43:19.621Z,95871.88
2018-08-06T17:45:51.252Z,95866.14
2018-08-06T17:48:22.189Z,95862.42
2018-08-06T17:50:52.760Z,95861.34
2018-08-06T17:53:23.620Z,95861.31
2018-08-06T17:55:54.464Z,95863.63
2018-08-06T17:58:25.046Z,95858.84
2018-08-06T18:00:55.997Z,95858.62
2018-08-06T18:03:26.563Z,95862.66
2018-08-06T18:05:57.077Z,95856.77
2018-08-06T18:08:27.575Z,95858.73
2018-08-06T18:10:58.277Z,95860.73
2018-08-06T18:13:29.441Z,95864.50
2018-08-06T18:16:00.267Z,95877.53
2018-08-06T18:18:31.171Z,95881.45
2018-08-06T18:21:01.707Z,95889.87
2018-08-06T18:23:33.059Z,95910.34
2018-08-06T18:26:03.539Z,95909.00
2018-08-06T18:28:34.143Z,95893.64
2018-08-06T18:31:04.895Z,95891.97
2018-08-06T18:33:35.663Z,95891.89
2018-08-06T18:36:06.668Z,95887.01
2018-08-06T18:38:37.151Z,95893.03
2018-08-06T18:41:08.083Z,95892.63
2018-08-06T18:43:38.921Z,95894.09
2018-08-06T18:46:09.422Z,95904.43
2018-08-06T18:59:28.577Z,95903.62
2018-08-06T19:01:59.129Z,95911.36
2018-08-06T19:04:29.666Z,95902.86
2018-08-06T19:07:00.495Z,95909.80
2018-08-06T19:09:31.047Z,95911.87
2018-08-06T19:12:06.975Z,95914.81
2018-08-06T19:14:38.304Z,95920.35
2018-08-06T19:17:13.821Z,95924.66
2018-08-06T19:19:44.514Z,95927.12
2018-08-06T19:22:16.071Z,95931.16
2018-08-06T19:28:23.039Z,95925.58
2018-08-06T19:30:58.738Z,95929.91
2018-08-06T19:33:29.235Z,95927.95
2018-08-06T19:35:59.709Z,95927.44
2018-08-06T19:38:30.559Z,95926.89
2018-08-06T19:41:01.772Z,95926.46
2018-08-06T19:43:37.618Z,95927.52
2018-08-06T19:46:09.096Z,95923.31
2018-08-06T19:48:39.636Z,95932.64
2018-08-06T19:51:10.538Z,95932.80
2018-08-06T19:53:41.094Z,95930.71
2018-08-06T19:56:15.522Z,95929.32
2018-08-06T19:58:46.520Z,95936.69
2018-08-06T20:01:16.954Z,95941.60
2018-08-06T20:03:48.245Z,95936.58
2018-08-06T20:06:19.015Z,95939.82
2018-08-06T20:08:50.112Z,95939.44
2018-08-06T20:11:20.654Z,95943.89
2018-08-06T20:13:51.613Z,95937.43
2018-08-06T20:16:22.893Z,95935.45
2018-08-06T20:18:53.807Z,95935.98
2018-08-06T20:21:24.628Z,95931.80
2018-08-06T20:23:56.362Z,95950.63
2018-08-06T20:26:26.912Z,95941.16
2018-08-06T20:28:57.699Z,95928.02
2018-08-06T20:31:28.309Z,95930.83
2018-08-06T20:33:59.585Z,95935.34
2018-08-06T20:36:30.040Z,95942.08
2018-08-06T20:39:38.159Z,95942.89
2018-08-06T20:42:08.840Z,95951.56
2018-08-06T20:44:39.393Z,95949.84
2018-08-06T20:47:09.937Z,95947.46
2018-08-06T20:49:40.451Z,95945.67
2018-08-06T20:52:11.062Z,95947.73
2018-08-06T20:54:41.535Z,95951.27
2018-08-06T20:57:12.682Z,95952.47
2018-08-06T20:59:43.414Z,95948.05
2018-08-06T21:02:14.332Z,95955.75
2018-08-06T21:04:45.183Z,95956.19
2018-08-06T21:07:16.596Z,95952.59
2018-08-06T21:09:47.862Z,95952.64
2018-08-06T21:12:18.583Z,95950.77
2018-08-06T21:14:49.660Z,95954.34
2018-08-06T21:17:20.665Z,95958.84
2018-08-06T21:19:51.296Z,95957.45
2018-08-06T21:22:21.524Z,95958.87
2018-08-06T21:24:52.219Z,95957.50
2018-08-06T21:27:22.825Z,95957.00
2018-08-06T21:29:53.259Z,95946.54
2018-08-06T21:32:24.452Z,95955.65
2018-08-06T21:34:54.893Z,95958.64
2018-08-06T21:37:25.596Z,95969.34
2018-08-06T21:39:56.072Z,95962.03
2018-08-06T21:42:26.988Z,95967.10
2018-08-06T21:44:57.492Z,95961.91
2018-08-06T21:47:28.172Z,95964.83
2018-08-06T21:49:58.789Z,95966.00
2018-08-06T21:52:29.602Z,95967.09
2018-08-06T21:55:00.156Z,95967.45
2018-08-06T21:57:30.755Z,95971.80
2018-08-06T22:00:01.379Z,95974.13
2018-08-06T22:02:32.825Z,95973.66
2018-08-06T22:05:03.671Z,95972.27
2018-08-06T22:07:34.504Z,95965.80
2018-08-06T22:10:05.947Z,95966.11
2018-08-06T22:12:36.466Z,95970.45
2018-08-06T22:15:07.099Z,95970.28
2018-08-06T22:17:38.443Z,95970.86
2018-08-06T22:20:10.537Z,95971.11
2018-08-06T22:22:41.384Z,95970.45
2018-08-06T22:25:11.964Z,95969.63
2018-08-06T22:28:36.272Z,95963.47
2018-08-06T22:31:07.022Z,95955.90
2018-08-06T22:33:37.529Z,95960.08
2018-08-06T22:36:07.952Z,95966.56
2018-08-06T22:38:38.449Z,95981.04
2018-08-06T22:41:09.088Z,95978.49
2018-08-06T22:43:39.809Z,95964.88
2018-08-06T22:46:11.166Z,95964.08
2018-08-06T22:48:41.984Z,95966.41
2018-08-06T22:51:12.550Z,95961.00
2018-08-06T22:53:43.171Z,95955.00
2018-08-06T22:56:14.234Z,95953.58
2018-08-06T22:58:44.742Z,95954.33
2018-08-06T23:01:15.367Z,95951.70
2018-08-06T23:03:45.518Z,95947.55
2018-08-06T23:06:16.838Z,95949.44
2018-08-06T23:08:47.329Z,95943.95
2018-08-06T23:11:18.221Z,95953.16
2018-08-06T23:13:48.699Z,95949.64
2018-08-06T23:16:19.527Z,95943.98
2018-08-06T23:18:50.415Z,95942.41
2018-08-06T23:21:20.902Z,95960.14
2018-08-06T23:23:51.387Z,95954.94
2018-08-06T23:29:58.453Z,95949.73
2018-08-06T23:32:30.927Z,95948.21
2018-08-06T23:35:01.449Z,95935.39
2018-08-06T23:37:32.348Z,95941.11
2018-08-06T23:40:03.298Z,95937.93
2018-08-06T23:42:34.490Z,95935.50
2018-08-06T23:45:06.459Z,95931.81
2018-08-06T23:47:37.765Z,95929.35
2018-08-06T23:50:10.992Z,95933.06
2018-08-06T23:52:43.089Z,95925.68
2018-08-06T23:55:16.688Z,95917.97
2018-08-06T23:57:47.425Z,95914.72
